| Pilot: | GLD1782 Bruno H. | Aircraft: | Piper | Distance: | 178NM |
| From: | SBUL | To: | SWLC | Duration: | 1.19 |
| Validation: | Valid | Tipo: | Charter | Tail Number: | PT-GLD |
| ZFW: | 4224 | Block Fuel/Init FOB | 195flight_details.php/124 | Flight Fuel | 195 |
| Passengers: | 3 | Cargo: | 55 | Alternate: | SBGO |
| Departure Time: | 1812 | Cruise Speed: | 190 | Flight Level: | 8500 |
| Flight Type: | VFR | Aircraft Type: | AEST | Weight Unit: | Kg |
| Date: | 26/04/2026 | Comments: | GOLD ACARS | Network: | VATSIM |
| Crash: | No | Validator Comments: | Rating | 122.21 |
| ROUTE | DCT 1826S04912W DCT 1815S04945W DCT 1802S05021W DCT |
| REMARKS | OPR/GOLD VIRTUAL AIRLINES PER/B RMK/FROM SBUL RMK/PIC GLD1782 RMK/EM TREINAMENTO VFR |
| Crash | OK | Beacon Lights off with engine on | OK | Speed above 250KIAS below 10.000ft | OK |
| Landing Lights OFF below 10.000ft | OK | Landing Lights ON above 10.000ft | OK | Stall | OK |
| Overspeed | OK | Pause | OK | Refuel | OK |
| Slew | OK | Taxi Lights OFF during taxi | OK | Land Lights OFF during take off | OK |
| Landing Lights OFF during landing | OK | Landed in not planned airfield | OK | Taxi speed above 25 kt | OK |
| Incorrect QNH during take off | OK | Incorrect QNH during landing | OK |
| Wind: | 158º/1 kt | Heading: | 193 |
| VS: | -58 ft/min | IAS: | 69 kt |
| Gforce: | 0.3856 G | Bank: | -0.74 |
| Pitch | 6.31 | Flaps | 0 |
| Nav Lights | ON | Landing Lights | ON |
| Beacon Lights | ON | Strobe Lights | ON |
| DATE | EVENT | IAS | ALTITUDE |
|---|---|---|---|
| 2026-04-26 18:12:11 | GOLD ACARS VERSION 3.3.6.9 | 0 | 0 |
| 2026-04-26 18:12:11 | BOARDING | 4 | 3103 |
| 2026-04-26 18:19:24 | BCN LIGHTS ON | 4 | 3103 |
| 2026-04-26 18:20:03 | STARTING ENGINE 2 | 4 | 3103 |
| 2026-04-26 18:20:22 | STOPPING ENGINE 2 | 4 | 3103 |
| 2026-04-26 18:20:46 | STARTING ENGINE 1 | 3 | 3103 |
| 2026-04-26 18:21:20 | STARTING ENGINE 2 | 4 | 3103 |
| 2026-04-26 18:21:41 | NAV LIGHTS ON | 4 | 3103 |
| 2026-04-26 18:22:17 | TAXI LIGHTS ON | 4 | 3103 |
| 2026-04-26 18:22:35 | TAXI TO THE RWY | 9 | 3103 |
| 2026-04-26 18:25:14 | LND LIGHTS ON | 0 | 3129 |
| 2026-04-26 18:25:16 | STB LIGHTS ON | 0 | 3129 |
| 2026-04-26 18:28:31 | CLIMBING | 101 | 3170 |
| 2026-04-26 18:28:33 | GEAR UP | 103 | 3193 |
| 2026-04-26 18:28:58 | CRUISE | 134 | 3451 |
| 2026-04-26 18:28:59 | LANDING | 139 | 3449 |
| 2026-04-26 18:29:02 | CLIMBING | 142 | 3453 |
| 2026-04-26 18:29:50 | TAXI LIGHTS OFF | 133 | 4567 |
| 2026-04-26 18:33:31 | CRUISE | 160 | 8489 |
| 2026-04-26 19:08:22 | DESCEND | 190 | 8482 |
| 2026-04-26 19:17:08 | GEAR DOWN | 106 | 3130 |
| 2026-04-26 19:18:13 | CLIMBING | 105 | 3047 |
| 2026-04-26 19:18:18 | CRUISE | 101 | 3084 |
| 2026-04-26 19:18:22 | LANDING | 101 | 3084 |
| 2026-04-26 19:20:50 | LANDED AIRPORT [SWLC] | 69 | 2530 |
| 2026-04-26 19:20:50 | LANDED - VS: -58 ft/min | 68 | 2529 |
| 2026-04-26 19:21:06 | TAXI TO THE GATE | 26 | 2519 |
| 2026-04-26 19:22:55 | AT THE GATE | 0 | 2519 |
| 2026-04-26 19:22:58 | STB LIGHTS OFF | 0 | 2519 |
| 2026-04-26 19:22:59 | LND LIGHTS OFF | 0 | 2519 |
| 2026-04-26 19:23:26 | STOPPING ENGINE 1 | 0 | 2519 |
| 2026-04-26 19:23:27 | STOPPING ENGINE 2 | 0 | 2519 |
| 2026-04-26 19:23:33 | BCN LIGHTS OFF | 0 | 2519 |
| 2026-04-26 19:23:33 | FLIGHT FINISHED | 0 | 2519 |
| DATE | IAS | GS | ALTITUDE | FUEL USED | OAT | Flight Phase |
|---|---|---|---|---|---|---|
| 2026-04-26 18:14:12 | 4 | 0 | 3103 | 0 | 27 | BOARDING |
| 2026-04-26 18:15:12 | 5 | 0 | 3103 | 0 | 27 | BOARDING |
| 2026-04-26 18:16:13 | 4 | 0 | 3103 | 0 | 27 | BOARDING |
| 2026-04-26 18:17:13 | 5 | 0 | 3103 | 0 | 27 | BOARDING |
| 2026-04-26 18:18:14 | 5 | 0 | 3103 | 0 | 27 | BOARDING |
| 2026-04-26 18:19:14 | 5 | 0 | 3103 | 0 | 27 | BOARDING |
| 2026-04-26 18:20:14 | 4 | 0 | 3103 | 0 | 27 | BOARDING |
| 2026-04-26 18:21:15 | 5 | 0 | 3103 | 0 | 27 | BOARDING |
| 2026-04-26 18:22:15 | 5 | 0 | 3103 | 0 | 27 | BOARDING |
| 2026-04-26 18:23:16 | 5 | 12 | 3130 | 0 | 27 | BOARDING |
| 2026-04-26 18:24:16 | 0 | 0 | 3129 | 0 | 27 | TAXI TO THE RWY |
| 2026-04-26 18:25:17 | 0 | 0 | 3129 | 1 | 27 | TAXI TO THE RWY |
| 2026-04-26 18:26:17 | 12 | 11 | 3129 | 1 | 27 | TAXI TO THE RWY |
| 2026-04-26 18:27:17 | 6 | 0 | 3128 | 2 | 27 | TAXI TO THE RWY |
| 2026-04-26 18:28:18 | 77 | 77 | 3129 | 2 | 27 | TAXI TO THE RWY |
| 2026-04-26 18:29:19 | 143 | 153 | 3862 | 5 | 25 | TAXI TO THE RWY |
| 2026-04-26 18:30:19 | 128 | 143 | 5110 | 6 | 20 | CLIMBING |
| 2026-04-26 18:31:20 | 130 | 145 | 6259 | 8 | 17 | CLIMBING |
| 2026-04-26 18:32:20 | 134 | 152 | 7441 | 9 | 13 | CLIMBING |
| 2026-04-26 18:33:21 | 154 | 178 | 8400 | 11 | 10 | CLIMBING |
| 2026-04-26 18:34:21 | 185 | 215 | 8484 | 12 | 10 | CLIMBING |
| 2026-04-26 18:35:22 | 191 | 223 | 8480 | 14 | 10 | CRUISE |
| 2026-04-26 18:36:22 | 193 | 224 | 8494 | 15 | 10 | CRUISE |
| 2026-04-26 18:37:23 | 192 | 224 | 8490 | 16 | 10 | CRUISE |
| 2026-04-26 18:38:23 | 188 | 219 | 8490 | 17 | 10 | CRUISE |
| 2026-04-26 18:39:24 | 188 | 218 | 8491 | 19 | 10 | CRUISE |
| 2026-04-26 18:40:24 | 189 | 219 | 8493 | 20 | 10 | CRUISE |
| 2026-04-26 18:41:25 | 189 | 220 | 8504 | 22 | 10 | CRUISE |
| 2026-04-26 18:42:26 | 189 | 221 | 8493 | 23 | 11 | CRUISE |
| 2026-04-26 18:43:27 | 189 | 221 | 8492 | 24 | 11 | CRUISE |
| 2026-04-26 18:44:27 | 189 | 221 | 8493 | 25 | 11 | CRUISE |
| 2026-04-26 18:45:28 | 189 | 220 | 8493 | 27 | 11 | CRUISE |
| 2026-04-26 18:46:28 | 189 | 220 | 8492 | 28 | 11 | CRUISE |
| 2026-04-26 18:47:29 | 189 | 219 | 8492 | 29 | 11 | CRUISE |
| 2026-04-26 18:48:30 | 189 | 219 | 8494 | 30 | 11 | CRUISE |
| 2026-04-26 18:49:31 | 189 | 218 | 8493 | 32 | 11 | CRUISE |
| 2026-04-26 18:50:31 | 190 | 219 | 8490 | 33 | 11 | CRUISE |
| 2026-04-26 18:51:32 | 190 | 219 | 8490 | 34 | 11 | CRUISE |
| 2026-04-26 18:52:32 | 190 | 218 | 8491 | 35 | 11 | CRUISE |
| 2026-04-26 18:53:33 | 190 | 218 | 8490 | 37 | 11 | CRUISE |
| 2026-04-26 18:54:33 | 189 | 219 | 8490 | 38 | 11 | CRUISE |
| 2026-04-26 18:55:34 | 189 | 218 | 8492 | 39 | 11 | CRUISE |
| 2026-04-26 18:56:35 | 190 | 219 | 8490 | 40 | 11 | CRUISE |
| 2026-04-26 18:57:35 | 189 | 219 | 8493 | 41 | 11 | CRUISE |
| 2026-04-26 18:58:36 | 190 | 219 | 8491 | 43 | 11 | CRUISE |
| 2026-04-26 18:59:37 | 190 | 220 | 8492 | 44 | 11 | CRUISE |
| 2026-04-26 19:00:37 | 189 | 220 | 8492 | 45 | 11 | CRUISE |
| 2026-04-26 19:01:38 | 190 | 221 | 8493 | 46 | 10 | CRUISE |
| 2026-04-26 19:02:38 | 190 | 221 | 8490 | 48 | 10 | CRUISE |
| 2026-04-26 19:03:39 | 190 | 221 | 8490 | 49 | 10 | CRUISE |
| 2026-04-26 19:04:39 | 190 | 221 | 8495 | 50 | 10 | CRUISE |
| 2026-04-26 19:05:40 | 190 | 221 | 8490 | 51 | 10 | CRUISE |
| 2026-04-26 19:06:40 | 190 | 221 | 8494 | 53 | 10 | CRUISE |
| 2026-04-26 19:07:41 | 190 | 220 | 8495 | 54 | 10 | CRUISE |
| 2026-04-26 19:08:42 | 199 | 230 | 8265 | 55 | 11 | CRUISE |
| 2026-04-26 19:09:43 | 197 | 224 | 7536 | 56 | 13 | DESCEND |
| 2026-04-26 19:10:43 | 197 | 221 | 6854 | 58 | 15 | DESCEND |
| 2026-04-26 19:11:44 | 202 | 225 | 6323 | 59 | 16 | DESCEND |
| 2026-04-26 19:12:44 | 207 | 231 | 5692 | 60 | 18 | DESCEND |
| 2026-04-26 19:13:45 | 199 | 219 | 4998 | 61 | 21 | DESCEND |
| 2026-04-26 19:14:46 | 198 | 217 | 4189 | 62 | 23 | DESCEND |
| 2026-04-26 19:15:47 | 139 | 151 | 3681 | 63 | 25 | DESCEND |
| 2026-04-26 19:16:47 | 121 | 131 | 3135 | 63 | 27 | DESCEND |
| 2026-04-26 19:17:48 | 108 | 118 | 3122 | 64 | 27 | DESCEND |
| 2026-04-26 19:18:48 | 104 | 113 | 2947 | 66 | 29 | DESCEND |
| 2026-04-26 19:19:49 | 108 | 116 | 2900 | 68 | 29 | LANDING |
| 2026-04-26 19:20:50 | 69 | 73 | 2529 | 69 | 30 | LANDING |
| 2026-04-26 19:21:50 | 15 | 14 | 2519 | 69 | 31 | LANDED - VS: -58 ft/min |
| 2026-04-26 19:22:51 | 1 | 0 | 2519 | 70 | 31 | TAXI TO THE GATE |